Time;durP1;ratioP1;P1;durP2;ratioP2;P2;SDS_P1;SDS_P2;PMS_P1;PMS_P2;Temp;Humidity;BMP_temperature;BMP_pressure;BME280_temperature;BME280_humidity;BME280_pressure;Samples;Min_cycle;Max_cycle;Signal;HPM_P1;HPM_P2
2024/01/18 00:01:39;;;;;;;25.40;14.40;;;;;;;-2.46;84.65;99530.08;79453;1297;3011607;-68
2024/01/18 00:04:07;;;;;;;26.40;12.60;;;;;;;-2.46;85.45;99530.75;78077;1300;3027997;-69
2024/01/18 00:06:34;;;;;;;26.90;14.30;;;;;;;-2.44;85.76;99524.04;79308;1297;3013294;-63
2024/01/18 00:09:01;;;;;;;31.00;15.10;;;;;;;-2.43;85.82;99524.71;79427;1297;3011640;-69
2024/01/18 00:11:29;;;;;;;27.90;14.80;;;;;;;-2.48;86.27;99521.84;80533;1296;3049537;-71
2024/01/18 00:13:55;;;;;;;32.40;17.50;;;;;;;-2.43;86.47;99513.23;81839;1297;3018114;-61
2024/01/18 00:16:22;;;;;;;26.10;13.80;;;;;;;-2.46;86.68;99508.27;81779;1296;3011274;-78
2024/01/18 00:18:50;;;;;;;24.00;12.50;;;;;;;-2.02;86.22;99501.40;80550;1297;3026558;-65
2024/01/18 00:21:16;;;;;;;21.80;12.10;;;;;;;-1.29;84.08;99498.59;81869;1296;3018092;-76
2024/01/18 00:23:43;;;;;;;19.80;11.90;;;;;;;-0.94;82.59;99501.77;81811;1301;3011471;-75
2024/01/18 00:26:10;;;;;;;22.60;12.50;;;;;;;-0.96;81.82;99499.74;78988;1296;3026200;-68
2024/01/18 00:28:37;;;;;;;21.40;12.60;;;;;;;-1.06;82.14;99502.63;79452;1297;3012948;-78
2024/01/18 00:31:04;;;;;;;26.90;13.40;;;;;;;-1.27;82.48;99497.37;79176;1298;3011642;-71
2024/01/18 00:33:32;;;;;;;25.30;14.70;;;;;;;-1.46;83.26;99489.01;78011;1297;3026284;-69
2024/01/18 00:35:58;;;;;;;25.60;13.30;;;;;;;-1.48;83.65;99485.59;79399;1296;3013521;-68
2024/01/18 00:38:26;;;;;;;24.70;13.40;;;;;;;-1.58;84.04;99486.04;79355;1302;3011943;-66
2024/01/18 00:40:54;;;;;;;24.60;13.40;;;;;;;-1.69;84.20;99484.63;78029;1298;3048894;-76
2024/01/18 00:43:20;;;;;;;27.30;12.60;;;;;;;-1.77;84.90;99479.54;79336;1303;3015218;-68
2024/01/18 00:45:47;;;;;;;25.20;13.20;;;;;;;-1.88;85.46;99479.14;79160;1297;3011723;-71
2024/01/18 00:48:15;;;;;;;25.50;15.20;;;;;;;-1.88;86.14;99464.36;78194;1302;3026177;-63
2024/01/18 00:50:41;;;;;;;27.80;16.10;;;;;;;-1.92;86.53;99462.52;79261;1300;3013637;-62
2024/01/18 00:53:08;;;;;;;22.90;12.30;;;;;;;-1.94;86.96;99462.38;79220;1297;3011415;-65
2024/01/18 00:55:36;;;;;;;29.80;17.10;;;;;;;-1.42;86.47;99449.42;78103;1296;3026393;-71
2024/01/18 00:58:02;;;;;;;28.50;14.70;;;;;;;-0.77;84.07;99443.08;79316;1300;3013594;-69
2024/01/18 01:00:30;;;;;;;28.40;15.70;;;;;;;-0.61;82.89;99440.24;79249;1302;3012104;-69
2024/01/18 01:02:58;;;;;;;26.80;13.40;;;;;;;-0.79;82.80;99438.98;77991;1297;3050146;-70
2024/01/18 01:05:26;;;;;;;23.80;13.10;;;;;;;-0.89;83.22;99431.39;79246;1297;3013352;-68
2024/01/18 01:07:53;;;;;;;22.70;12.40;;;;;;;-1.16;83.92;99426.25;79301;1298;3011841;-67
2024/01/18 01:10:21;;;;;;;23.10;11.70;;;;;;;-1.29;84.36;99411.48;78128;1297;3050814;-69
2024/01/18 01:12:47;;;;;;;25.50;12.80;;;;;;;-1.34;85.10;99414.63;79300;1301;3012999;-72
2024/01/18 01:15:14;;;;;;;26.20;13.90;;;;;;;-1.42;85.05;99417.13;79470;1302;3011763;-63
2024/01/18 01:17:43;;;;;;;28.70;13.70;;;;;;;-1.52;85.83;99420.34;77974;1302;3026538;-68
2024/01/18 01:20:10;;;;;;;21.20;12.70;;;;;;;-1.61;86.29;99410.48;79302;1297;3011627;-70
2024/01/18 01:22:37;;;;;;;21.10;10.70;;;;;;;-1.63;86.54;99404.33;79236;1297;3012774;-61
2024/01/18 01:25:05;;;;;;;22.20;11.70;;;;;;;-1.57;86.42;99392.92;77904;1302;3049490;-74
2024/01/18 01:27:32;;;;;;;21.80;11.60;;;;;;;-1.69;86.55;99386.71;79320;1303;3013671;-70
2024/01/18 01:29:59;;;;;;;19.50;9.10;;;;;;;-1.81;87.63;99378.08;79136;1302;3011610;-62
2024/01/18 01:32:27;;;;;;;17.80;9.50;;;;;;;-1.24;87.04;99378.92;77931;1298;3051914;-72
2024/01/18 01:34:54;;;;;;;17.30;9.80;;;;;;;-0.66;84.18;99374.43;79242;1298;3013264;-66
2024/01/18 01:37:20;;;;;;;18.10;10.50;;;;;;;-0.46;82.85;99368.44;79227;1297;3013160;-63
2024/01/18 01:39:48;;;;;;;15.40;9.20;;;;;;;-0.45;82.62;99367.03;77969;1302;3049296;-71
2024/01/18 01:42:15;;;;;;;16.10;9.30;;;;;;;-0.59;82.50;99364.17;79385;1302;3013555;-71
2024/01/18 01:44:42;;;;;;;18.40;9.60;;;;;;;-0.72;83.18;99363.52;79216;1298;3011874;-68
2024/01/18 01:47:09;;;;;;;15.20;8.60;;;;;;;-0.96;83.63;99366.98;77891;1297;3028306;-69
2024/01/18 01:49:36;;;;;;;15.40;8.30;;;;;;;-1.11;84.45;99356.73;79177;1303;3013655;-69
2024/01/18 01:52:03;;;;;;;16.50;9.20;;;;;;;-1.16;85.09;99350.79;79112;1303;3012780;-70
2024/01/18 01:54:32;;;;;;;13.60;7.70;;;;;;;-1.26;85.65;99341.64;78062;1303;3049532;-67
2024/01/18 01:56:59;;;;;;;15.20;8.50;;;;;;;-1.34;85.86;99340.73;79422;1302;3013028;-70
2024/01/18 01:59:26;;;;;;;16.30;8.60;;;;;;;-1.34;86.71;99340.73;79094;1302;3013108;-72
2024/01/18 02:01:54;;;;;;;14.70;7.80;;;;;;;-1.45;87.10;99330.58;77865;1302;3051382;-68
2024/01/18 02:04:20;;;;;;;11.20;6.30;;;;;;;-1.52;87.92;99317.95;79323;1297;3013139;-73
2024/01/18 02:06:51;;;;;;;12.60;7.40;;;;;;;-1.05;87.53;99304.38;79231;1302;3011651;-68
2024/01/18 02:09:19;;;;;;;13.00;7.00;;;;;;;-0.51;85.12;99294.53;78217;1296;3049951;-74
2024/01/18 02:11:46;;;;;;;11.60;7.10;;;;;;;-0.30;84.39;99288.97;79272;1303;3013787;-69
2024/01/18 02:14:12;;;;;;;12.60;6.90;;;;;;;-0.41;83.99;99273.34;79379;1301;3011504;-71
2024/01/18 02:16:40;;;;;;;13.00;7.40;;;;;;;-0.54;84.35;99269.45;77956;1301;3026358;-70
2024/01/18 02:19:07;;;;;;;13.00;7.20;;;;;;;-0.55;84.82;99262.75;79218;1300;3013692;-71
2024/01/18 02:21:33;;;;;;;13.50;8.30;;;;;;;-0.73;84.81;99267.21;79205;1303;3013633;-73
2024/01/18 02:24:19;;;;;;;14.50;7.20;;;;;;;-0.81;85.58;99265.98;78034;1303;3026444;-67
2024/01/18 02:26:47;;;;;;;11.20;7.30;;;;;;;-0.84;86.00;99266.55;78020;1303;3052188;-67
2024/01/18 02:29:14;;;;;;;12.30;7.20;;;;;;;-0.90;86.30;99261.15;79383;1303;3013574;-64
2024/01/18 02:31:40;;;;;;;12.70;7.40;;;;;;;-0.98;86.87;99263.34;79210;1302;3011886;-66
2024/01/18 02:34:09;;;;;;;9.20;4.60;;;;;;;-1.00;87.80;99262.86;78014;1303;3027224;-72
2024/01/18 02:36:37;;;;;;;15.10;7.70;;;;;;;-0.52;87.61;99258.75;79284;1297;3013315;-68
2024/01/18 02:39:03;;;;;;;10.00;5.30;;;;;;;0.12;85.17;99252.98;79190;1297;3012859;-75
2024/01/18 02:41:32;;;;;;;9.30;6.10;;;;;;;0.20;83.89;99247.84;78134;1301;3051922;-72
2024/01/18 02:43:59;;;;;;;10.40;5.90;;;;;;;0.08;84.15;99249.29;79322;1303;3013024;-68
2024/01/18 02:46:34;;;;;;;8.60;5.50;;;;;;;-0.23;85.11;99241.33;79225;1298;3011659;-70
2024/01/18 02:49:02;;;;;;;10.90;5.80;;;;;;;-0.26;85.74;99235.02;78174;1298;3056548;-65
2024/01/18 02:51:31;;;;;;;10.60;6.70;;;;;;;-0.40;86.10;99238.06;79140;1298;3013516;-68
2024/01/18 02:53:57;;;;;;;9.20;5.60;;;;;;;-0.42;86.21;99233.79;79171;1298;3011815;-65
2024/01/18 02:56:25;;;;;;;10.60;5.80;;;;;;;-0.46;86.41;99233.16;77940;1303;3053119;-73
2024/01/18 02:58:52;;;;;;;11.30;6.20;;;;;;;-0.61;87.20;99224.85;79239;1296;3018426;-65
2024/01/18 03:01:19;;;;;;;12.70;6.60;;;;;;;-0.66;87.60;99224.26;79276;1301;3011982;-70
2024/01/18 03:03:46;;;;;;;9.20;4.30;;;;;;;-0.76;88.38;99222.55;78117;1303;3028748;-74
2024/01/18 03:06:13;;;;;;;9.80;5.50;;;;;;;-0.34;88.23;99219.67;79106;1297;3013512;-70
2024/01/18 03:08:40;;;;;;;10.10;5.50;;;;;;;0.28;86.33;99225.42;79180;1297;3012899;-71
2024/01/18 03:11:08;;;;;;;10.10;5.00;;;;;;;0.33;85.01;99218.24;78390;1300;3027243;-65
2024/01/18 03:13:34;;;;;;;9.70;5.70;;;;;;;0.26;85.12;99206.36;79256;1298;3012959;-70
2024/01/18 03:16:01;;;;;;;8.80;5.10;;;;;;;0.11;85.85;99201.52;79246;1300;3011582;-67
2024/01/18 03:18:29;;;;;;;10.10;5.40;;;;;;;-0.02;86.79;99200.23;78038;1300;3028744;-69
2024/01/18 03:20:56;;;;;;;9.20;5.70;;;;;;;-0.09;87.13;99197.83;79283;1298;3019320;-70
2024/01/18 03:23:22;;;;;;;12.40;5.70;;;;;;;-0.34;87.82;99195.05;81426;1296;3011361;-73
2024/01/18 03:25:50;;;;;;;7.50;4.60;;;;;;;-0.48;89.32;99193.98;77774;1302;3028361;-68
2024/01/18 03:28:18;;;;;;;8.50;4.80;;;;;;;-0.43;89.97;99192.86;81454;1297;3018541;-72
2024/01/18 03:30:44;;;;;;;5.70;3.80;;;;;;;-0.38;90.15;99188.10;81805;1297;3011173;-67
2024/01/18 03:33:12;;;;;;;7.50;4.20;;;;;;;0.16;89.43;99191.75;80316;1297;3026264;-72
2024/01/18 03:35:39;;;;;;;7.00;3.90;;;;;;;0.65;87.28;99173.75;79454;1297;3013124;-71
2024/01/18 03:38:06;;;;;;;6.80;4.10;;;;;;;0.59;86.31;99173.18;79311;1297;3013184;-64
2024/01/18 03:40:35;;;;;;;8.20;4.40;;;;;;;0.52;86.53;99175.76;78067;1301;3026606;-67
2024/01/18 03:43:02;;;;;;;8.80;4.50;;;;;;;0.46;86.99;99171.09;79273;1300;3013308;-70
2024/01/18 03:45:28;;;;;;;9.40;4.70;;;;;;;0.33;87.11;99162.77;79145;1298;3013299;-63
2024/01/18 03:47:56;;;;;;;6.80;4.10;;;;;;;0.08;87.95;99166.29;77858;1297;3055451;-68
2024/01/18 03:50:23;;;;;;;9.20;4.90;;;;;;;0.03;88.57;99163.80;79119;1298;3013757;-65
2024/01/18 03:52:49;;;;;;;8.80;5.20;;;;;;;-0.12;89.10;99161.05;79239;1298;3011613;-71
2024/01/18 03:55:17;;;;;;;6.40;3.90;;;;;;;-0.10;89.90;99154.97;78043;1301;3025815;-73
2024/01/18 03:57:44;;;;;;;7.20;4.00;;;;;;;0.27;89.42;99151.52;79193;1300;3013267;-70
2024/01/18 04:00:12;;;;;;;8.20;4.00;;;;;;;0.77;87.67;99141.19;79293;1303;3011995;-69
2024/01/18 04:02:40;;;;;;;10.30;5.00;;;;;;;0.81;86.67;99132.98;77894;1297;3056214;-69
2024/01/18 04:05:07;;;;;;;8.30;3.90;;;;;;;0.82;86.34;99136.04;79214;1296;3013588;-68
2024/01/18 04:07:37;;;;;;;6.20;4.00;;;;;;;0.48;86.95;99131.23;79348;1302;3013519;-66
2024/01/18 04:10:07;;;;;;;6.90;3.90;;;;;;;0.41;87.78;99124.52;78002;1303;3053051;-69
2024/01/18 04:12:34;;;;;;;6.80;4.30;;;;;;;0.20;88.67;99114.14;79479;1301;3013492;-66
2024/01/18 04:15:04;;;;;;;8.40;3.80;;;;;;;0.11;89.23;99113.86;78750;1300;3011689;-64
2024/01/18 04:17:30;;;;;;;6.90;4.30;;;;;;;-0.01;90.08;99115.86;79259;1298;3013393;-67
2024/01/18 04:19:57;;;;;;;5.30;2.70;;;;;;;-0.05;90.52;99108.54;79171;1297;3011626;-68
2024/01/18 04:22:25;;;;;;;5.80;3.50;;;;;;;0.37;89.96;99105.63;77984;1298;3054057;-67
2024/01/18 04:24:52;;;;;;;6.20;3.40;;;;;;;0.89;87.77;99097.25;79387;1304;3013658;-67
2024/01/18 04:27:18;;;;;;;6.30;3.80;;;;;;;0.99;86.73;99097.66;79162;1302;3011652;-66
2024/01/18 04:29:46;;;;;;;6.60;4.20;;;;;;;0.84;86.95;99097.36;78041;1300;3028401;-64
2024/01/18 04:32:13;;;;;;;8.90;4.40;;;;;;;0.72;87.01;99086.83;79440;1297;3013748;-67
2024/01/18 04:34:39;;;;;;;8.60;4.80;;;;;;;0.55;87.73;99085.20;79347;1297;3011774;-70
2024/01/18 04:37:07;;;;;;;6.70;4.10;;;;;;;0.40;88.53;99083.68;78033;1302;3028823;-66
2024/01/18 04:39:34;;;;;;;9.50;4.40;;;;;;;0.25;89.31;99074.41;79291;1302;3013363;-65
2024/01/18 04:42:00;;;;;;;5.80;4.30;;;;;;;0.05;90.72;99066.13;79628;1300;3012067;-73
2024/01/18 04:44:28;;;;;;;9.70;3.80;;;;;;;0.02;91.52;99061.37;78235;1297;3025862;-70
2024/01/18 04:46:55;;;;;;;6.20;3.70;;;;;;;0.49;91.31;99055.86;79348;1298;3020557;-64
2024/01/18 04:49:21;;;;;;;8.20;4.60;;;;;;;0.92;89.81;99057.14;79485;1298;3012889;-65
2024/01/18 04:51:49;;;;;;;8.50;3.70;;;;;;;0.98;88.74;99050.61;78286;1298;3027195;-69
2024/01/18 04:54:16;;;;;;;8.40;4.30;;;;;;;0.87;88.66;99045.21;79474;1295;3013329;-69
2024/01/18 04:56:43;;;;;;;7.70;4.20;;;;;;;0.58;89.64;99041.00;79495;1298;3011543;-70
2024/01/18 04:59:11;;;;;;;7.90;3.90;;;;;;;0.59;90.27;99045.47;78258;1298;3027883;-69
2024/01/18 05:01:39;;;;;;;6.60;3.80;;;;;;;0.43;90.69;99035.71;79426;1298;3013278;-73
2024/01/18 05:04:06;;;;;;;8.30;4.10;;;;;;;0.26;91.50;99033.20;79535;1296;3011647;-72
2024/01/18 05:06:34;;;;;;;7.60;4.10;;;;;;;0.12;92.70;99039.42;78255;1296;3052835;-71
2024/01/18 05:09:00;;;;;;;6.20;3.30;;;;;;;0.64;92.63;99037.92;79662;1298;3012919;-71
2024/01/18 05:11:27;;;;;;;7.60;3.50;;;;;;;1.08;90.74;99040.14;79561;1298;3011512;-65
2024/01/18 05:13:55;;;;;;;6.80;3.20;;;;;;;1.10;89.89;99034.58;78188;1296;3026471;-72
2024/01/18 05:16:22;;;;;;;8.60;4.30;;;;;;;0.98;89.85;99033.36;79687;1295;3012903;-67
2024/01/18 05:18:49;;;;;;;7.50;4.30;;;;;;;0.74;90.75;99028.33;79447;1296;3011940;-69
2024/01/18 05:21:16;;;;;;;8.40;4.00;;;;;;;0.75;91.32;99027.44;78137;1298;3028040;-73
2024/01/18 05:23:43;;;;;;;9.20;3.80;;;;;;;0.68;91.99;99014.52;79614;1298;3018409;-67
2024/01/18 05:26:10;;;;;;;7.50;3.70;;;;;;;0.55;92.92;99008.86;79373;1298;3011599;-67
2024/01/18 05:28:37;;;;;;;5.50;3.70;;;;;;;0.93;93.20;99004.35;78210;1300;3026373;-72
2024/01/18 05:31:04;;;;;;;7.00;3.20;;;;;;;1.38;91.96;99000.27;79574;1298;3020782;-67
2024/01/18 05:33:30;;;;;;;5.20;3.50;;;;;;;1.35;91.66;98996.92;79467;1294;3011528;-66
2024/01/18 05:35:58;;;;;;;7.20;4.10;;;;;;;1.22;92.48;98992.30;78464;1296;3026352;-63
2024/01/18 05:38:25;;;;;;;9.20;4.30;;;;;;;1.23;93.45;98989.70;79604;1298;3013239;-65
2024/01/18 05:40:51;;;;;;;8.00;4.20;;;;;;;1.11;95.02;98974.85;79462;1298;3012582;-69
2024/01/18 05:43:19;;;;;;;7.70;3.80;;;;;;;1.07;96.40;98969.96;78291;1298;3026097;-63
2024/01/18 05:45:46;;;;;;;7.40;4.00;;;;;;;1.45;96.84;98967.09;79438;1298;3012846;-63
2024/01/18 05:48:12;;;;;;;9.60;4.00;;;;;;;1.82;95.63;98957.45;79447;1295;3011945;-72
2024/01/18 05:50:41;;;;;;;9.20;4.10;;;;;;;1.86;95.35;98962.67;78461;1295;3026197;-70
2024/01/18 05:53:08;;;;;;;8.40;4.20;;;;;;;1.82;95.95;98963.84;79579;1298;3013124;-65
2024/01/18 05:55:35;;;;;;;9.00;4.30;;;;;;;1.69;97.03;98957.02;79565;1299;3011645;-66
2024/01/18 05:58:03;;;;;;;10.10;3.80;;;;;;;1.68;97.41;98958.24;78408;1298;3069448;-68
2024/01/18 06:00:30;;;;;;;14.10;4.30;;;;;;;1.62;98.16;98955.34;79628;1295;3018319;-66
2024/01/18 06:02:56;;;;;;;7.80;3.60;;;;;;;2.08;98.76;98952.77;79440;1298;3011781;-70
2024/01/18 06:05:25;;;;;;;9.00;4.90;;;;;;;2.49;96.88;98948.94;78338;1298;3027588;-68
2024/01/18 06:07:51;;;;;;;8.70;4.10;;;;;;;2.51;96.50;98943.15;79224;1300;3014868;-65
2024/01/18 06:10:18;;;;;;;10.10;3.80;;;;;;;2.46;96.16;98936.42;79386;1300;3011629;-72
2024/01/18 06:12:46;;;;;;;9.50;4.40;;;;;;;2.24;97.50;98930.63;78222;1300;3069475;-69
2024/01/18 06:15:12;;;;;;;7.10;4.20;;;;;;;2.24;97.83;98927.52;79556;1300;3013375;-63
2024/01/18 06:17:39;;;;;;;6.90;4.20;;;;;;;2.24;98.32;98926.48;79501;1299;3011596;-65
2024/01/18 06:20:07;;;;;;;6.70;3.80;;;;;;;2.50;98.04;98927.48;78213;1298;3026911;-65
2024/01/18 06:22:34;;;;;;;8.70;5.00;;;;;;;2.76;96.90;98925.30;79253;1300;3013815;-67
2024/01/18 06:25:01;;;;;;;7.70;4.30;;;;;;;2.66;96.44;98922.21;79194;1305;3011760;-71
2024/01/18 06:27:28;;;;;;;7.70;4.40;;;;;;;2.44;97.18;98920.08;77976;1300;3069385;-67
2024/01/18 06:29:55;;;;;;;8.10;4.20;;;;;;;2.38;97.85;98917.38;79420;1299;3020429;-65
2024/01/18 06:32:22;;;;;;;12.90;4.40;;;;;;;2.22;98.85;98909.09;79466;1300;3011592;-70
2024/01/18 06:34:49;;;;;;;9.20;4.70;;;;;;;2.65;99.01;98913.07;78134;1298;3026856;-73
2024/01/18 06:37:17;;;;;;;8.20;4.40;;;;;;;3.01;96.92;98911.40;79403;1300;3013831;-67
2024/01/18 06:39:43;;;;;;;7.50;4.30;;;;;;;2.93;96.11;98914.64;79353;1300;3011795;-72
2024/01/18 06:42:12;;;;;;;10.30;5.60;;;;;;;2.92;96.20;98906.55;78117;1298;3069026;-68
2024/01/18 06:44:39;;;;;;;12.20;4.40;;;;;;;2.76;96.29;98907.34;79526;1296;3013577;-71
2024/01/18 06:47:06;;;;;;;9.50;4.40;;;;;;;2.55;97.21;98907.22;79202;1298;3011526;-69
2024/01/18 06:49:34;;;;;;;6.60;4.00;;;;;;;2.59;98.13;98906.56;78049;1297;3052693;-62
2024/01/18 06:52:02;;;;;;;9.10;4.70;;;;;;;2.95;97.72;98906.27;80941;1300;3013291;-66
2024/01/18 06:54:28;;;;;;;8.80;4.60;;;;;;;3.18;96.22;98893.60;81839;1300;3011553;-65
2024/01/18 06:56:57;;;;;;;12.80;5.40;;;;;;;3.15;95.40;98893.88;80441;1297;3068291;-66
2024/01/18 06:59:23;;;;;;;11.70;5.80;;;;;;;3.19;95.40;98890.29;81842;1299;3018691;-68
2024/01/18 07:01:50;;;;;;;9.00;5.20;;;;;;;2.88;96.39;98877.63;81887;1298;3011446;-66
2024/01/18 07:04:18;;;;;;;10.30;5.30;;;;;;;2.82;97.09;98875.27;80586;1300;3026148;-66
2024/01/18 07:06:44;;;;;;;7.60;3.80;;;;;;;2.78;97.58;98870.74;80925;1298;3013134;-70
2024/01/18 07:09:11;;;;;;;12.10;5.10;;;;;;;3.40;96.94;98871.08;79290;1300;3011941;-69
2024/01/18 07:11:39;;;;;;;6.80;4.00;;;;;;;3.57;94.75;98876.11;78073;1297;3028706;-66
2024/01/18 07:14:05;;;;;;;10.30;3.90;;;;;;;3.64;93.79;98880.48;79636;1300;3013062;-71
2024/01/18 07:16:32;;;;;;;8.60;5.10;;;;;;;3.25;95.06;98883.80;79464;1300;3011684;-71
2024/01/18 07:19:00;;;;;;;16.70;5.30;;;;;;;3.09;96.30;98882.02;78060;1301;3027439;-66
2024/01/18 07:21:26;;;;;;;12.10;5.10;;;;;;;3.02;96.78;98880.20;79658;1300;3012912;-71
2024/01/18 07:23:53;;;;;;;8.10;4.60;;;;;;;2.91;97.97;98877.55;79513;1301;3011734;-65
2024/01/18 07:26:21;;;;;;;11.30;4.80;;;;;;;3.61;97.29;98881.82;78323;1300;3026335;-70
2024/01/18 07:28:48;;;;;;;12.50;4.70;;;;;;;3.78;94.92;98882.17;79559;1295;3012927;-72
2024/01/18 07:31:15;;;;;;;9.20;4.10;;;;;;;3.77;94.77;98882.20;79538;1297;3013339;-68
2024/01/18 07:33:43;;;;;;;9.20;4.50;;;;;;;3.78;94.72;98888.91;78430;1304;3053359;-68
2024/01/18 07:36:10;;;;;;;10.30;5.40;;;;;;;3.62;95.03;98875.57;79473;1300;3011539;-68
2024/01/18 07:38:36;;;;;;;13.20;5.30;;;;;;;3.61;95.28;98871.11;79734;1300;3011661;-68
2024/01/18 07:41:04;;;;;;;9.80;4.40;;;;;;;3.50;96.09;98875.34;78521;1300;3066816;-68
2024/01/18 07:43:31;;;;;;;9.40;5.10;;;;;;;3.90;95.72;98879.08;79774;1306;3013503;-74
2024/01/18 07:45:57;;;;;;;15.50;5.80;;;;;;;4.14;94.05;98879.23;79793;1300;3013333;-71
2024/01/18 07:48:25;;;;;;;12.00;5.70;;;;;;;4.12;93.27;98873.43;78189;1300;3028991;-72
2024/01/18 07:50:52;;;;;;;12.40;5.20;;;;;;;3.88;94.49;98873.09;79582;1311;3013163;-68
2024/01/18 07:53:19;;;;;;;12.20;6.10;;;;;;;3.91;94.78;98874.67;79273;1310;3012031;-72
2024/01/18 07:55:46;;;;;;;13.30;6.00;;;;;;;3.68;95.53;98871.14;78102;1300;3026585;-68
2024/01/18 07:58:13;;;;;;;10.00;4.40;;;;;;;3.63;96.32;98871.17;79364;1297;3018585;-69
2024/01/18 08:00:41;;;;;;;12.20;4.20;;;;;;;3.99;95.89;98861.67;79550;1300;3011531;-74
2024/01/18 08:03:08;;;;;;;9.70;4.30;;;;;;;4.29;94.34;98860.23;78051;1300;3025748;-64
2024/01/18 08:05:35;;;;;;;10.70;4.50;;;;;;;4.26;93.80;98847.16;79323;1301;3013701;-64
2024/01/18 08:08:02;;;;;;;10.50;5.40;;;;;;;4.36;93.56;98851.23;79330;1300;3013139;-65
2024/01/18 08:10:30;;;;;;;10.70;5.50;;;;;;;4.10;93.76;98837.63;78038;1306;3029359;-71
2024/01/18 08:12:58;;;;;;;18.80;6.40;;;;;;;3.87;94.85;98836.04;79542;1297;3013606;-70
2024/01/18 08:15:24;;;;;;;11.60;5.20;;;;;;;3.78;95.90;98835.05;79618;1295;3011385;-70
2024/01/18 08:17:52;;;;;;;17.60;6.00;;;;;;;4.20;95.60;98836.52;78267;1301;3052958;-72
2024/01/18 08:20:20;;;;;;;10.00;4.80;;;;;;;4.54;93.33;98825.64;79644;1300;3013253;-70
2024/01/18 08:22:47;;;;;;;13.00;5.00;;;;;;;4.51;92.55;98825.95;79585;1300;3013366;-64
2024/01/18 08:25:15;;;;;;;12.50;5.60;;;;;;;4.43;92.58;98823.14;78439;1295;3068863;-69
2024/01/18 08:27:43;;;;;;;13.00;4.60;;;;;;;4.24;93.01;98814.67;79250;1297;3013893;-66
2024/01/18 08:30:10;;;;;;;10.50;5.70;;;;;;;3.98;94.78;98809.73;79474;1296;3011704;-68
2024/01/18 08:32:38;;;;;;;10.70;4.70;;;;;;;4.04;94.71;98810.00;78188;1298;3052605;-72
2024/01/18 08:35:08;;;;;;;18.20;4.40;;;;;;;4.44;94.21;98804.59;79545;1300;3013006;-74
2024/01/18 08:37:37;;;;;;;9.60;4.80;;;;;;;4.73;91.90;98796.65;79071;1296;3011382;-68
2024/01/18 08:40:05;;;;;;;13.40;5.90;;;;;;;4.56;91.91;98790.48;79521;1300;3013457;-66
2024/01/18 08:42:32;;;;;;;11.70;5.20;;;;;;;4.44;92.59;98778.55;79465;1295;3011927;-73
2024/01/18 08:45:00;;;;;;;9.30;4.50;;;;;;;4.26;93.66;98777.15;78264;1295;3055673;-69
2024/01/18 08:47:26;;;;;;;12.80;5.30;;;;;;;4.14;94.57;98774.40;79698;1300;3018365;-75
2024/01/18 08:49:53;;;;;;;8.70;3.50;;;;;;;4.25;94.58;98755.84;79698;1298;3012102;-71
2024/01/18 08:52:21;;;;;;;14.00;5.00;;;;;;;4.70;92.71;98759.86;78398;1300;3026068;-70
2024/01/18 08:54:48;;;;;;;18.10;4.40;;;;;;;4.80;91.76;98745.14;79495;1298;3013635;-73
2024/01/18 08:57:15;;;;;;;12.60;5.00;;;;;;;4.90;90.52;98753.65;79323;1300;3011545;-70
2024/01/18 08:59:43;;;;;;;9.30;4.90;;;;;;;4.62;91.69;98751.23;78259;1300;3056196;-73
2024/01/18 09:02:10;;;;;;;15.20;5.60;;;;;;;4.63;91.81;98739.17;79599;1300;3013625;-68
2024/01/18 09:04:38;;;;;;;12.10;4.60;;;;;;;4.48;91.87;98735.38;79719;1300;3011928;-73
2024/01/18 09:07:06;;;;;;;11.50;3.50;;;;;;;4.25;93.56;98728.11;78392;1298;3050706;-66
2024/01/18 09:09:32;;;;;;;12.20;4.40;;;;;;;4.61;93.04;98714.98;79580;1295;3013413;-66
2024/01/18 09:11:59;;;;;;;11.80;5.20;;;;;;;4.98;91.03;98708.15;79551;1298;3011595;-71
2024/01/18 09:14:27;;;;;;;13.20;5.40;;;;;;;4.93;90.34;98719.48;78326;1299;3028062;-67
2024/01/18 09:16:53;;;;;;;12.90;5.60;;;;;;;4.52;92.01;98720.61;79379;1297;3013460;-69
2024/01/18 09:19:20;;;;;;;14.70;5.40;;;;;;;4.59;92.74;98724.42;79592;1296;3011764;-69
2024/01/18 09:21:48;;;;;;;14.50;6.00;;;;;;;4.42;92.92;98716.77;78369;1295;3027362;-74
2024/01/18 09:24:15;;;;;;;13.10;5.00;;;;;;;4.53;93.00;98712.95;79243;1296;3020889;-68
2024/01/18 09:26:41;;;;;;;12.50;4.70;;;;;;;4.80;92.36;98699.80;79453;1301;3012920;-73
2024/01/18 09:29:09;;;;;;;15.40;6.20;;;;;;;5.06;91.43;98701.34;78310;1298;3024859;-68
2024/01/18 09:31:36;;;;;;;13.30;5.20;;;;;;;5.11;91.01;98691.17;79563;1296;3013339;-73
2024/01/18 09:34:02;;;;;;;16.30;5.70;;;;;;;4.92;90.74;98685.89;79563;1302;3012983;-64
2024/01/18 09:36:30;;;;;;;16.40;6.50;;;;;;;4.91;90.85;98671.86;78300;1298;3026030;-71
2024/01/18 09:38:56;;;;;;;12.10;5.30;;;;;;;4.78;91.13;98664.20;79543;1297;3013765;-72
2024/01/18 09:41:26;;;;;;;11.80;4.40;;;;;;;4.67;92.26;98649.48;79525;1300;3012956;-71
2024/01/18 09:43:59;;;;;;;10.50;4.10;;;;;;;5.04;91.46;98649.03;78541;1296;3056780;-75
2024/01/18 09:46:27;;;;;;;13.50;5.50;;;;;;;5.34;89.58;98648.20;79753;1296;3011883;-69
2024/01/18 09:48:55;;;;;;;13.10;5.20;;;;;;;5.25;89.51;98648.79;78347;1300;3052044;-69
2024/01/18 09:51:23;;;;;;;16.90;6.50;;;;;;;5.21;89.79;98635.48;79877;1300;3013797;-74
2024/01/18 09:53:54;;;;;;;16.70;6.10;;;;;;;4.94;90.61;98633.02;79152;1302;3011648;-68
2024/01/18 09:56:26;;;;;;;18.00;5.90;;;;;;;4.76;92.20;98625.94;78234;1296;3068411;-67
2024/01/18 09:58:54;;;;;;;16.60;4.70;;;;;;;4.72;93.37;98631.18;79571;1298;3011698;-75
2024/01/18 10:01:23;;;;;;;14.50;5.60;;;;;;;5.15;92.62;98615.45;78323;1298;3056036;-81
2024/01/18 10:03:50;;;;;;;13.40;6.20;;;;;;;5.37;90.98;98614.31;79621;1295;3013075;-73
2024/01/18 10:06:17;;;;;;;16.50;5.50;;;;;;;5.48;90.09;98610.43;79536;1296;3014120;-67
2024/01/18 10:08:46;;;;;;;14.40;6.00;;;;;;;5.34;89.99;98612.58;78279;1298;3050448;-66
2024/01/18 10:11:12;;;;;;;11.80;6.00;;;;;;;5.29;90.78;98604.31;79613;1296;3013053;-73
2024/01/18 10:13:52;;;;;;;15.10;6.00;;;;;;;5.10;91.81;98611.23;79567;1298;3013026;-70
2024/01/18 10:16:29;;;;;;;11.60;5.00;;;;;;;5.15;91.86;98606.97;78163;1295;3056865;-73
2024/01/18 10:19:01;;;;;;;12.80;5.20;;;;;;;5.63;90.16;98598.86;78320;1298;3049766;-74
2024/01/18 10:21:28;;;;;;;15.20;6.00;;;;;;;5.73;88.64;98594.84;79340;1308;3011902;-77
2024/01/18 10:23:57;;;;;;;12.90;5.70;;;;;;;5.58;89.33;98582.29;78385;1298;3025356;-71
2024/01/18 10:26:31;;;;;;;12.50;6.00;;;;;;;5.41;89.66;98579.90;79599;1298;3013897;-61
2024/01/18 10:28:59;;;;;;;17.10;6.30;;;;;;;5.27;90.53;98580.31;78641;1298;3068236;-67
2024/01/18 10:31:25;;;;;;;14.20;4.50;;;;;;;4.96;92.17;98565.92;80261;1295;3018976;-71
2024/01/18 10:33:52;;;;;;;8.40;3.90;;;;;;;5.16;92.39;98556.57;80081;1295;3011473;-69
2024/01/18 10:36:21;;;;;;;12.60;5.30;;;;;;;5.73;90.08;98558.52;78985;1298;3028041;-64
2024/01/18 10:38:47;;;;;;;9.30;4.50;;;;;;;5.63;89.77;98556.30;80171;1298;3015615;-65
2024/01/18 10:41:20;;;;;;;11.20;4.90;;;;;;;5.69;89.67;98548.68;80294;1298;3011786;-76
2024/01/18 10:43:48;;;;;;;14.40;5.30;;;;;;;5.29;90.86;98543.52;78953;1300;3067885;-69
2024/01/18 10:46:15;;;;;;;10.90;5.10;;;;;;;5.06;92.69;98548.77;80105;1296;3013059;-69
2024/01/18 10:48:46;;;;;;;15.00;5.10;;;;;;;5.07;93.05;98542.11;79988;1298;3011741;-69
2024/01/18 10:51:13;;;;;;;15.00;4.60;;;;;;;5.05;93.43;98541.36;78765;1296;3054774;-71
2024/01/18 10:53:41;;;;;;;14.60;5.60;;;;;;;5.43;92.56;98537.60;79930;1299;3013613;-71
2024/01/18 10:56:08;;;;;;;18.30;5.40;;;;;;;5.74;90.95;98527.40;79774;1300;3011475;-68
2024/01/18 10:58:36;;;;;;;13.90;5.50;;;;;;;5.64;90.64;98529.17;78762;1297;3069004;-65
2024/01/18 11:01:03;;;;;;;21.80;6.40;;;;;;;5.43;91.31;98523.83;79999;1295;3012732;-67
2024/01/18 11:03:30;;;;;;;11.10;5.60;;;;;;;5.33;92.06;98531.69;79969;1298;3011905;-68
2024/01/18 11:05:59;;;;;;;8.30;3.50;;;;;;;5.14;92.73;98511.53;78696;1300;3053701;-70
2024/01/18 11:08:25;;;;;;;10.00;4.50;;;;;;;5.35;92.78;98513.71;79925;1298;3013004;-65
2024/01/18 11:10:52;;;;;;;10.80;4.70;;;;;;;5.62;91.94;98515.37;79713;1300;3011735;-74
2024/01/18 11:13:20;;;;;;;10.80;4.50;;;;;;;5.76;90.91;98498.60;78701;1298;3067396;-70
2024/01/18 11:15:47;;;;;;;10.20;4.80;;;;;;;5.66;90.86;98506.62;80229;1296;3015074;-68
2024/01/18 11:18:14;;;;;;;16.40;5.20;;;;;;;5.59;91.81;98499.73;80274;1296;3012988;-65